Lenexa, KS

11:24 AM CST on February 13, 2016 (GMT -0600)
The Koellers | | Change Station
CLOSE
Current Station
Personal Weather Station
Location: Northern Lenexa, KS
Elevation: 1038 ft
Nearby Weather Stations

Elev 1038 ft 38.98 °N, 94.75 °W | Updated 1 second ago

Overcast
Overcast
18.9 °F
Feels Like 10 °F
N
6.9
Wind Variable Wind from ESE
Gusts 6.9 mph

Today
High -- | Low -- °F
--% Chance of Precip.
Yesterday
High -- | Low -- °F
Precip. -- in
Pressure 30.60 in
Visibility 10.0 miles
Clouds Overcast 6500 ft
Windchill 10 °F
Dew Point 5 °F
Humidity 53%
Rainfall 0.00 in
Snow Depth Not available.
7:13 AM 5:53 PM
Waxing Crescent, 32% visible
METAR KOJC 131653Z 10009KT 10SM OVC065 M07/M17 A3055 RMK AO2 SLP362 T10721172
Pressure 30.60 in
Visibility 10.0 miles
Clouds Overcast 6500 ft
Windchill 10 °F
Dew Point 5 °F
Humidity 53%
Rainfall 0.00 in
Snow Depth Not available.
7:13 AM 5:53 PM
Waxing Crescent, 32% visible
METAR KOJC 131653Z 10009KT 10SM OVC065 M07/M17 A3055 RMK AO2 SLP362 T10721172

10-Day Weather Forecast

Almanac

Astronomy

Feb. 13, 2016 Rise Set
Actual Time
Civil Twilight
Nautical Twilight
Astronomical Twilight
Moon
Length of Visible Light
Length of Day
Tomorrow will be .
, % of the Moon is Illuminated

Today's Extremes

State Highs State Lows

Community

WunderPhotos

Upload Photos

1,892,620 photos uploaded!

WunderBlog® & News

Nearby

Air Quality

  Air Quality AQ Index Pollutant
Not available.

Snow Depth

Station Depth Elevation

Earthquake Activity

City Distance Mag. Time & Date
Minimum magnitude displayed is 2.5.

Coastal Water Temperatures

Place Temperature

Stations

Nearby Weather Stations

Station Location Temp. Windchill Dew Point Humidity Wind Precip. Elev Updated Type
                   

Watches & Warnings

There are currently no watches in effect.